sensor_id;sensor_type;location;lat;lon;timestamp;pressure;altitude;pressure_sealevel;temperature;humidity
51067;BME280;37112;45.892;-123.962;2023-10-09T00:01:13;100617.34;;;18.28;68.33
51067;BME280;37112;45.892;-123.962;2023-10-09T00:03:28;100620.13;;;18.23;68.56
51067;BME280;37112;45.892;-123.962;2023-10-09T00:05:42;100616.02;;;18.16;68.35
51067;BME280;37112;45.892;-123.962;2023-10-09T00:07:58;100610.52;;;18.06;68.37
51067;BME280;37112;45.892;-123.962;2023-10-09T00:10:14;100607.18;;;17.97;68.75
51067;BME280;37112;45.892;-123.962;2023-10-09T00:12:28;100600.80;;;17.89;68.99
51067;BME280;37112;45.892;-123.962;2023-10-09T00:14:43;100594.92;;;17.79;69.05
51067;BME280;37112;45.892;-123.962;2023-10-09T00:16:59;100589.78;;;17.71;69.32
51067;BME280;37112;45.892;-123.962;2023-10-09T00:19:31;100587.08;;;17.64;69.51
51067;BME280;37112;45.892;-123.962;2023-10-09T00:21:46;100583.52;;;17.60;69.84
51067;BME280;37112;45.892;-123.962;2023-10-09T00:24:06;100578.00;;;17.60;70.16
51067;BME280;37112;45.892;-123.962;2023-10-09T00:26:24;100582.64;;;17.60;70.29
51067;BME280;37112;45.892;-123.962;2023-10-09T00:28:40;100574.63;;;17.60;70.37
51067;BME280;37112;45.892;-123.962;2023-10-09T00:30:55;100568.80;;;17.58;70.36
51067;BME280;37112;45.892;-123.962;2023-10-09T00:33:09;100564.88;;;17.56;70.41
51067;BME280;37112;45.892;-123.962;2023-10-09T00:35:22;100559.77;;;17.53;70.47
51067;BME280;37112;45.892;-123.962;2023-10-09T00:37:57;100555.20;;;17.49;70.57
51067;BME280;37112;45.892;-123.962;2023-10-09T00:40:17;100551.34;;;17.44;70.62
51067;BME280;37112;45.892;-123.962;2023-10-09T00:42:33;100551.86;;;17.41;70.70
51067;BME280;37112;45.892;-123.962;2023-10-09T00:44:49;100549.49;;;17.39;70.78
51067;BME280;37112;45.892;-123.962;2023-10-09T00:47:02;100548.36;;;17.36;70.84
51067;BME280;37112;45.892;-123.962;2023-10-09T00:49:31;100542.86;;;17.34;71.02
51067;BME280;37112;45.892;-123.962;2023-10-09T00:51:51;100539.92;;;17.29;71.07
51067;BME280;37112;45.892;-123.962;2023-10-09T00:54:07;100547.75;;;17.24;71.05
51067;BME280;37112;45.892;-123.962;2023-10-09T00:56:25;100549.18;;;17.21;71.14
51067;BME280;37112;45.892;-123.962;2023-10-09T00:58:50;100548.82;;;17.15;71.21
51067;BME280;37112;45.892;-123.962;2023-10-09T01:01:09;100548.69;;;17.11;71.29
51067;BME280;37112;45.892;-123.962;2023-10-09T01:03:26;100548.58;;;17.07;71.25
51067;BME280;37112;45.892;-123.962;2023-10-09T01:05:45;100548.55;;;17.03;71.62
51067;BME280;37112;45.892;-123.962;2023-10-09T01:08:09;100544.48;;;16.99;71.84
51067;BME280;37112;45.892;-123.962;2023-10-09T01:10:29;100538.31;;;16.94;71.93
51067;BME280;37112;45.892;-123.962;2023-10-09T01:12:46;100534.23;;;16.90;72.06
51067;BME280;37112;45.892;-123.962;2023-10-09T01:15:06;100529.80;;;16.86;72.07
51067;BME280;37112;45.892;-123.962;2023-10-09T01:17:28;100531.59;;;16.82;72.18
51067;BME280;37112;45.892;-123.962;2023-10-09T01:19:48;100530.38;;;16.80;72.30
51067;BME280;37112;45.892;-123.962;2023-10-09T01:22:06;100525.60;;;16.78;72.35
51067;BME280;37112;45.892;-123.962;2023-10-09T01:24:25;100524.60;;;16.75;72.63
51067;BME280;37112;45.892;-123.962;2023-10-09T01:26:43;100518.97;;;16.72;72.63
51067;BME280;37112;45.892;-123.962;2023-10-09T01:29:00;100514.88;;;16.70;72.92
51067;BME280;37112;45.892;-123.962;2023-10-09T01:31:14;100507.58;;;16.67;73.06
51067;BME280;37112;45.892;-123.962;2023-10-09T01:33:31;100508.52;;;16.65;73.22
51067;BME280;37112;45.892;-123.962;2023-10-09T01:35:46;100502.17;;;16.64;73.21
51067;BME280;37112;45.892;-123.962;2023-10-09T01:38:04;100494.40;;;16.62;73.36
51067;BME280;37112;45.892;-123.962;2023-10-09T01:40:23;100492.27;;;16.60;73.40
51067;BME280;37112;45.892;-123.962;2023-10-09T01:42:46;100491.93;;;16.60;73.29
51067;BME280;37112;45.892;-123.962;2023-10-09T01:45:00;100484.45;;;16.61;73.52
51067;BME280;37112;45.892;-123.962;2023-10-09T01:47:21;100483.34;;;16.62;73.50
51067;BME280;37112;45.892;-123.962;2023-10-09T01:49:36;100483.17;;;16.62;73.42
51067;BME280;37112;45.892;-123.962;2023-10-09T01:51:52;100479.30;;;16.61;73.47
51067;BME280;37112;45.892;-123.962;2023-10-09T01:54:05;100480.05;;;16.61;73.52
51067;BME280;37112;45.892;-123.962;2023-10-09T01:56:18;100485.20;;;16.59;73.58
51067;BME280;37112;45.892;-123.962;2023-10-09T01:58:30;100487.89;;;16.59;73.49
51067;BME280;37112;45.892;-123.962;2023-10-09T02:00:44;100493.98;;;16.59;73.53
51067;BME280;37112;45.892;-123.962;2023-10-09T02:02:59;100496.36;;;16.59;73.55
51067;BME280;37112;45.892;-123.962;2023-10-09T02:05:15;100503.28;;;16.60;73.65
51067;BME280;37112;45.892;-123.962;2023-10-09T02:07:37;100501.02;;;16.59;73.72
51067;BME280;37112;45.892;-123.962;2023-10-09T02:09:55;100498.77;;;16.58;73.66
51067;BME280;37112;45.892;-123.962;2023-10-09T02:12:08;100504.42;;;16.57;73.74
51067;BME280;37112;45.892;-123.962;2023-10-09T02:14:21;100499.40;;;16.54;73.99
51067;BME280;37112;45.892;-123.962;2023-10-09T02:16:34;100496.15;;;16.50;74.12
51067;BME280;37112;45.892;-123.962;2023-10-09T02:18:52;100497.65;;;16.47;73.97
51067;BME280;37112;45.892;-123.962;2023-10-09T02:21:10;100497.33;;;16.45;74.02
51067;BME280;37112;45.892;-123.962;2023-10-09T02:23:26;100497.09;;;16.44;74.05
51067;BME280;37112;45.892;-123.962;2023-10-09T02:25:49;100491.49;;;16.42;73.98
51067;BME280;37112;45.892;-123.962;2023-10-09T02:28:04;100488.05;;;16.41;74.06
51067;BME280;37112;45.892;-123.962;2023-10-09T02:30:18;100485.61;;;16.38;73.96
51067;BME280;37112;45.892;-123.962;2023-10-09T02:32:37;100487.34;;;16.37;73.93
51067;BME280;37112;45.892;-123.962;2023-10-09T02:34:50;100480.45;;;16.36;73.92
51067;BME280;37112;45.892;-123.962;2023-10-09T02:37:04;100480.93;;;16.35;73.96
51067;BME280;37112;45.892;-123.962;2023-10-09T02:39:21;100474.30;;;16.35;73.88
51067;BME280;37112;45.892;-123.962;2023-10-09T02:41:36;100467.94;;;16.34;73.89
51067;BME280;37112;45.892;-123.962;2023-10-09T02:44:01;100468.52;;;16.33;73.87
51067;BME280;37112;45.892;-123.962;2023-10-09T02:46:22;100471.19;;;16.33;73.85
51067;BME280;37112;45.892;-123.962;2023-10-09T02:48:42;100471.45;;;16.35;73.92
51067;BME280;37112;45.892;-123.962;2023-10-09T02:50:59;100473.48;;;16.36;73.89
51067;BME280;37112;45.892;-123.962;2023-10-09T02:53:13;100470.88;;;16.37;73.72
51067;BME280;37112;45.892;-123.962;2023-10-09T02:55:30;100469.38;;;16.37;73.79
51067;BME280;37112;45.892;-123.962;2023-10-09T02:57:49;100464.40;;;16.37;73.57
51067;BME280;37112;45.892;-123.962;2023-10-09T03:00:10;100467.29;;;16.37;73.66
51067;BME280;37112;45.892;-123.962;2023-10-09T03:02:29;100467.11;;;16.37;73.75
51067;BME280;37112;45.892;-123.962;2023-10-09T03:04:42;100469.36;;;16.36;73.76
51067;BME280;37112;45.892;-123.962;2023-10-09T03:06:55;100465.42;;;16.36;73.76
51067;BME280;37112;45.892;-123.962;2023-10-09T03:09:08;100472.38;;;16.36;73.69
51067;BME280;37112;45.892;-123.962;2023-10-09T03:11:28;100472.55;;;16.36;73.69
51067;BME280;37112;45.892;-123.962;2023-10-09T03:13:43;100472.21;;;16.36;73.67
51067;BME280;37112;45.892;-123.962;2023-10-09T03:15:58;100472.92;;;16.36;73.76
51067;BME280;37112;45.892;-123.962;2023-10-09T03:18:12;100477.48;;;16.35;73.75
51067;BME280;37112;45.892;-123.962;2023-10-09T03:20:25;100478.81;;;16.34;73.74
51067;BME280;37112;45.892;-123.962;2023-10-09T03:22:39;100483.27;;;16.33;73.85
51067;BME280;37112;45.892;-123.962;2023-10-09T03:24:53;100486.68;;;16.31;73.81
51067;BME280;37112;45.892;-123.962;2023-10-09T03:27:07;100491.21;;;16.30;73.84
51067;BME280;37112;45.892;-123.962;2023-10-09T03:29:20;100489.26;;;16.30;73.83
51067;BME280;37112;45.892;-123.962;2023-10-09T03:31:34;100485.52;;;16.30;73.91
51067;BME280;37112;45.892;-123.962;2023-10-09T03:33:49;100481.70;;;16.30;73.89
51067;BME280;37112;45.892;-123.962;2023-10-09T03:36:02;100479.45;;;16.30;73.88
51067;BME280;37112;45.892;-123.962;2023-10-09T03:38:18;100485.84;;;16.28;73.82
51067;BME280;37112;45.892;-123.962;2023-10-09T03:40:31;100490.06;;;16.27;73.85
51067;BME280;37112;45.892;-123.962;2023-10-09T03:42:44;100490.76;;;16.25;73.92
51067;BME280;37112;45.892;-123.962;2023-10-09T03:44:58;100491.64;;;16.24;73.81
51067;BME280;37112;45.892;-123.962;2023-10-09T03:47:11;100492.53;;;16.22;73.84
51067;BME280;37112;45.892;-123.962;2023-10-09T03:49:27;100495.07;;;16.20;73.86
51067;BME280;37112;45.892;-123.962;2023-10-09T03:51:40;100495.71;;;16.19;73.71
51067;BME280;37112;45.892;-123.962;2023-10-09T03:53:55;100496.00;;;16.18;73.88
51067;BME280;37112;45.892;-123.962;2023-10-09T03:56:09;100504.13;;;16.17;73.81
51067;BME280;37112;45.892;-123.962;2023-10-09T03:58:25;100507.84;;;16.15;73.74
51067;BME280;37112;45.892;-123.962;2023-10-09T04:00:41;100512.70;;;16.13;73.77
51067;BME280;37112;45.892;-123.962;2023-10-09T04:02:57;100518.23;;;16.12;73.85
51067;BME280;37112;45.892;-123.962;2023-10-09T04:05:11;100514.33;;;16.09;74.08
51067;BME280;37112;45.892;-123.962;2023-10-09T04:07:26;100513.06;;;16.08;74.05
51067;BME280;37112;45.892;-123.962;2023-10-09T04:09:41;100515.05;;;16.05;74.00
51067;BME280;37112;45.892;-123.962;2023-10-09T04:11:58;100515.98;;;16.03;74.05
51067;BME280;37112;45.892;-123.962;2023-10-09T04:14:24;100515.64;;;16.01;74.19
51067;BME280;37112;45.892;-123.962;2023-10-09T04:16:44;100514.28;;;16.01;74.20
51067;BME280;37112;45.892;-123.962;2023-10-09T04:19:13;100509.03;;;15.99;74.15
51067;BME280;37112;45.892;-123.962;2023-10-09T04:21:26;100514.64;;;15.99;74.10
51067;BME280;37112;45.892;-123.962;2023-10-09T04:23:49;100506.38;;;15.99;74.08
51067;BME280;37112;45.892;-123.962;2023-10-09T04:26:21;100505.01;;;16.00;74.13
51067;BME280;37112;45.892;-123.962;2023-10-09T04:28:38;100503.17;;;16.00;74.17
51067;BME280;37112;45.892;-123.962;2023-10-09T04:30:52;100499.35;;;16.01;74.14
51067;BME280;37112;45.892;-123.962;2023-10-09T04:33:06;100502.08;;;16.01;74.10
51067;BME280;37112;45.892;-123.962;2023-10-09T04:35:23;100505.04;;;16.02;73.99
51067;BME280;37112;45.892;-123.962;2023-10-09T04:37:40;100503.88;;;16.01;73.97
51067;BME280;37112;45.892;-123.962;2023-10-09T04:39:55;100506.77;;;16.00;73.93
51067;BME280;37112;45.892;-123.962;2023-10-09T04:42:21;100503.26;;;15.99;73.90
51067;BME280;37112;45.892;-123.962;2023-10-09T04:44:47;100502.49;;;16.00;73.98
51067;BME280;37112;45.892;-123.962;2023-10-09T04:47:31;100508.14;;;16.01;73.94
51067;BME280;37112;45.892;-123.962;2023-10-09T04:50:00;100507.33;;;16.00;74.09
51067;BME280;37112;45.892;-123.962;2023-10-09T04:52:22;100512.20;;;16.00;74.03
51067;BME280;37112;45.892;-123.962;2023-10-09T04:54:48;100502.13;;;16.00;74.19
51067;BME280;37112;45.892;-123.962;2023-10-09T04:57:14;100505.91;;;16.00;74.25
51067;BME280;37112;45.892;-123.962;2023-10-09T04:59:28;100506.31;;;15.99;74.18
51067;BME280;37112;45.892;-123.962;2023-10-09T05:01:41;100501.25;;;16.00;74.24
51067;BME280;37112;45.892;-123.962;2023-10-09T05:04:08;100503.67;;;16.01;74.18
51067;BME280;37112;45.892;-123.962;2023-10-09T05:06:37;100499.48;;;16.01;74.24
51067;BME280;37112;45.892;-123.962;2023-10-09T05:09:05;100493.13;;;16.03;74.20
51067;BME280;37112;45.892;-123.962;2023-10-09T05:11:24;100488.80;;;16.03;74.20
51067;BME280;37112;45.892;-123.962;2023-10-09T05:13:53;100483.36;;;16.04;74.21
51067;BME280;37112;45.892;-123.962;2023-10-09T05:16:21;100483.13;;;16.04;74.11
51067;BME280;37112;45.892;-123.962;2023-10-09T05:18:35;100474.39;;;16.06;74.17
51067;BME280;37112;45.892;-123.962;2023-10-09T05:20:48;100475.91;;;16.06;74.00
51067;BME280;37112;45.892;-123.962;2023-10-09T05:23:30;100468.83;;;16.08;74.06
51067;BME280;37112;45.892;-123.962;2023-10-09T05:25:55;100466.59;;;16.08;73.94
51067;BME280;37112;45.892;-123.962;2023-10-09T05:28:10;100452.56;;;16.09;73.91
51067;BME280;37112;45.892;-123.962;2023-10-09T05:30:41;100457.80;;;16.09;73.82
51067;BME280;37112;45.892;-123.962;2023-10-09T05:32:57;100450.88;;;16.08;73.88
51067;BME280;37112;45.892;-123.962;2023-10-09T05:35:26;100453.63;;;16.07;73.87
51067;BME280;37112;45.892;-123.962;2023-10-09T05:38:14;100452.95;;;16.07;73.85
51067;BME280;37112;45.892;-123.962;2023-10-09T05:40:35;100457.58;;;16.07;73.93
51067;BME280;37112;45.892;-123.962;2023-10-09T05:42:48;100455.20;;;16.08;73.96
51067;BME280;37112;45.892;-123.962;2023-10-09T05:45:12;100462.45;;;16.11;73.93
51067;BME280;37112;45.892;-123.962;2023-10-09T05:47:56;100464.05;;;16.13;73.96
51067;BME280;37112;45.892;-123.962;2023-10-09T05:50:17;100462.58;;;16.13;73.89
51067;BME280;37112;45.892;-123.962;2023-10-09T05:52:47;100471.03;;;16.12;73.92
51067;BME280;37112;45.892;-123.962;2023-10-09T05:55:15;100477.79;;;16.13;73.98
51067;BME280;37112;45.892;-123.962;2023-10-09T05:57:52;100486.19;;;16.13;74.03
51067;BME280;37112;45.892;-123.962;2023-10-09T06:00:22;100489.29;;;16.14;74.17
51067;BME280;37112;45.892;-123.962;2023-10-09T06:03:01;100485.21;;;16.16;74.12
51067;BME280;37112;45.892;-123.962;2023-10-09T06:05:36;100492.79;;;16.18;74.24
51067;BME280;37112;45.892;-123.962;2023-10-09T06:08:13;100494.70;;;16.18;74.23
51067;BME280;37112;45.892;-123.962;2023-10-09T06:10:35;100498.95;;;16.19;74.20
51067;BME280;37112;45.892;-123.962;2023-10-09T06:12:54;100501.13;;;16.19;74.19
51067;BME280;37112;45.892;-123.962;2023-10-09T06:15:14;100506.48;;;16.19;74.13
51067;BME280;37112;45.892;-123.962;2023-10-09T06:18:01;100506.90;;;16.18;74.18
51067;BME280;37112;45.892;-123.962;2023-10-09T06:20:36;100508.99;;;16.16;74.13
51067;BME280;37112;45.892;-123.962;2023-10-09T06:23:14;100512.15;;;16.20;74.25
51067;BME280;37112;45.892;-123.962;2023-10-09T06:25:50;100521.22;;;16.22;74.28
51067;BME280;37112;45.892;-123.962;2023-10-09T06:28:04;100531.18;;;16.24;74.19
51067;BME280;37112;45.892;-123.962;2023-10-09T06:30:16;100533.79;;;16.27;74.21
51067;BME280;37112;45.892;-123.962;2023-10-09T06:32:45;100537.70;;;16.30;74.19
51067;BME280;37112;45.892;-123.962;2023-10-09T06:35:09;100544.07;;;16.32;74.29
51067;BME280;37112;45.892;-123.962;2023-10-09T06:37:29;100539.00;;;16.33;74.27
51067;BME280;37112;45.892;-123.962;2023-10-09T06:40:10;100543.77;;;16.33;74.12
51067;BME280;37112;45.892;-123.962;2023-10-09T06:42:56;100538.29;;;16.35;74.19
51067;BME280;37112;45.892;-123.962;2023-10-09T06:45:11;100542.64;;;16.36;73.99
51067;BME280;37112;45.892;-123.962;2023-10-09T06:47:27;100539.98;;;16.37;73.92
51067;BME280;37112;45.892;-123.962;2023-10-09T06:49:47;100535.97;;;16.38;73.91
51067;BME280;37112;45.892;-123.962;2023-10-09T06:52:21;100539.95;;;16.40;73.81
51067;BME280;37112;45.892;-123.962;2023-10-09T06:54:54;100529.52;;;16.40;73.71
51067;BME280;37112;45.892;-123.962;2023-10-09T06:57:07;100533.75;;;16.40;73.70
51067;BME280;37112;45.892;-123.962;2023-10-09T06:59:28;100525.21;;;16.40;73.72
51067;BME280;37112;45.892;-123.962;2023-10-09T07:02:13;100531.01;;;16.41;73.68
51067;BME280;37112;45.892;-123.962;2023-10-09T07:04:42;100532.60;;;16.43;73.73
51067;BME280;37112;45.892;-123.962;2023-10-09T07:07:02;100520.91;;;16.48;73.67
51067;BME280;37112;45.892;-123.962;2023-10-09T07:09:18;100519.16;;;16.51;73.55
51067;BME280;37112;45.892;-123.962;2023-10-09T07:11:35;100520.77;;;16.57;73.79
51067;BME280;37112;45.892;-123.962;2023-10-09T07:14:05;100514.88;;;16.60;73.61
51067;BME280;37112;45.892;-123.962;2023-10-09T07:16:22;100518.10;;;16.62;73.48
51067;BME280;37112;45.892;-123.962;2023-10-09T07:18:48;100512.29;;;16.64;73.49
51067;BME280;37112;45.892;-123.962;2023-10-09T07:21:05;100509.66;;;16.68;73.33
51067;BME280;37112;45.892;-123.962;2023-10-09T07:23:22;100509.55;;;16.71;73.33
51067;BME280;37112;45.892;-123.962;2023-10-09T07:25:40;100510.98;;;16.75;73.28
51067;BME280;37112;45.892;-123.962;2023-10-09T07:28:00;100510.45;;;16.78;73.27
51067;BME280;37112;45.892;-123.962;2023-10-09T07:30:15;100511.39;;;16.82;73.25
51067;BME280;37112;45.892;-123.962;2023-10-09T07:32:41;100513.45;;;16.84;73.11
51067;BME280;37112;45.892;-123.962;2023-10-09T07:34:59;100494.27;;;16.86;73.10
51067;BME280;37112;45.892;-123.962;2023-10-09T07:37:14;100497.48;;;16.88;73.14
51067;BME280;37112;45.892;-123.962;2023-10-09T07:39:30;100497.16;;;16.91;72.98
51067;BME280;37112;45.892;-123.962;2023-10-09T07:41:46;100495.47;;;16.94;72.84
51067;BME280;37112;45.892;-123.962;2023-10-09T07:44:12;100491.33;;;16.98;72.72
51067;BME280;37112;45.892;-123.962;2023-10-09T07:46:44;100493.06;;;17.01;72.96
51067;BME280;37112;45.892;-123.962;2023-10-09T07:49:24;100496.20;;;17.02;72.83
51067;BME280;37112;45.892;-123.962;2023-10-09T07:51:37;100494.02;;;17.02;72.71
51067;BME280;37112;45.892;-123.962;2023-10-09T07:53:57;100502.12;;;17.01;72.67
51067;BME280;37112;45.892;-123.962;2023-10-09T07:56:20;100500.08;;;17.02;72.58
51067;BME280;37112;45.892;-123.962;2023-10-09T07:58:34;100510.09;;;17.04;72.55
51067;BME280;37112;45.892;-123.962;2023-10-09T08:00:57;100499.59;;;17.05;72.37
51067;BME280;37112;45.892;-123.962;2023-10-09T08:03:26;100507.77;;;17.06;72.17
51067;BME280;37112;45.892;-123.962;2023-10-09T08:05:44;100498.90;;;17.07;72.28
51067;BME280;37112;45.892;-123.962;2023-10-09T08:07:57;100500.58;;;17.06;72.29
51067;BME280;37112;45.892;-123.962;2023-10-09T08:10:30;100502.19;;;17.06;72.18
51067;BME280;37112;45.892;-123.962;2023-10-09T08:13:00;100506.66;;;17.07;72.21
51067;BME280;37112;45.892;-123.962;2023-10-09T08:15:36;100495.47;;;17.07;72.20
51067;BME280;37112;45.892;-123.962;2023-10-09T08:18:02;100490.73;;;17.08;72.25
51067;BME280;37112;45.892;-123.962;2023-10-09T08:20:29;100482.99;;;17.08;72.18
51067;BME280;37112;45.892;-123.962;2023-10-09T08:23:01;100476.44;;;17.07;72.15
51067;BME280;37112;45.892;-123.962;2023-10-09T08:25:15;100475.19;;;17.07;72.15
51067;BME280;37112;45.892;-123.962;2023-10-09T08:27:42;100477.07;;;17.06;72.08
51067;BME280;37112;45.892;-123.962;2023-10-09T08:30:06;100485.20;;;17.06;72.07
51067;BME280;37112;45.892;-123.962;2023-10-09T08:32:38;100492.94;;;17.06;72.08
51067;BME280;37112;45.892;-123.962;2023-10-09T08:34:56;100485.20;;;17.06;71.92
51067;BME280;37112;45.892;-123.962;2023-10-09T08:37:10;100490.48;;;17.07;72.08
51067;BME280;37112;45.892;-123.962;2023-10-09T08:39:23;100494.73;;;17.07;72.18
51067;BME280;37112;45.892;-123.962;2023-10-09T08:41:44;100496.01;;;17.07;71.98
51067;BME280;37112;45.892;-123.962;2023-10-09T08:43:57;100502.47;;;17.07;72.07
51067;BME280;37112;45.892;-123.962;2023-10-09T08:46:10;100509.23;;;17.08;71.95
51067;BME280;37112;45.892;-123.962;2023-10-09T08:48:29;100509.42;;;17.07;71.84
51067;BME280;37112;45.892;-123.962;2023-10-09T08:50:43;100502.63;;;17.07;71.81
51067;BME280;37112;45.892;-123.962;2023-10-09T08:52:57;100503.27;;;17.08;72.01
51067;BME280;37112;45.892;-123.962;2023-10-09T08:55:11;100498.77;;;17.08;71.71
51067;BME280;37112;45.892;-123.962;2023-10-09T08:57:26;100493.33;;;17.09;71.91
51067;BME280;37112;45.892;-123.962;2023-10-09T08:59:45;100491.11;;;17.09;71.98
51067;BME280;37112;45.892;-123.962;2023-10-09T09:01:58;100488.42;;;17.09;71.97
51067;BME280;37112;45.892;-123.962;2023-10-09T09:04:30;100481.85;;;17.09;72.01
51067;BME280;37112;45.892;-123.962;2023-10-09T09:06:45;100477.23;;;17.10;71.91
51067;BME280;37112;45.892;-123.962;2023-10-09T09:09:12;100468.18;;;17.11;71.94
51067;BME280;37112;45.892;-123.962;2023-10-09T09:11:28;100468.96;;;17.12;72.04
51067;BME280;37112;45.892;-123.962;2023-10-09T09:13:47;100447.14;;;17.13;72.04
51067;BME280;37112;45.892;-123.962;2023-10-09T09:16:03;100447.27;;;17.13;72.01
51067;BME280;37112;45.892;-123.962;2023-10-09T09:18:17;100446.63;;;17.13;72.07
51067;BME280;37112;45.892;-123.962;2023-10-09T09:20:32;100441.49;;;17.12;72.03
51067;BME280;37112;45.892;-123.962;2023-10-09T09:22:56;100442.23;;;17.12;72.23
51067;BME280;37112;45.892;-123.962;2023-10-09T09:25:13;100442.05;;;17.12;72.34
51067;BME280;37112;45.892;-123.962;2023-10-09T09:27:26;100426.45;;;17.12;72.24
51067;BME280;37112;45.892;-123.962;2023-10-09T09:30:00;100433.01;;;17.13;72.20
51067;BME280;37112;45.892;-123.962;2023-10-09T09:32:26;100420.29;;;17.13;72.26
51067;BME280;37112;45.892;-123.962;2023-10-09T09:34:46;100424.84;;;17.14;72.31
51067;BME280;37112;45.892;-123.962;2023-10-09T09:37:00;100412.23;;;17.16;72.58
51067;BME280;37112;45.892;-123.962;2023-10-09T09:39:15;100405.25;;;17.17;72.57
51067;BME280;37112;45.892;-123.962;2023-10-09T09:41:51;100387.77;;;17.18;72.59
51067;BME280;37112;45.892;-123.962;2023-10-09T09:44:04;100377.09;;;17.19;72.58
51067;BME280;37112;45.892;-123.962;2023-10-09T09:46:18;100374.70;;;17.22;72.64
51067;BME280;37112;45.892;-123.962;2023-10-09T09:48:34;100376.73;;;17.25;72.76
51067;BME280;37112;45.892;-123.962;2023-10-09T09:50:52;100382.02;;;17.28;72.71
51067;BME280;37112;45.892;-123.962;2023-10-09T09:53:05;100389.46;;;17.29;72.72
51067;BME280;37112;45.892;-123.962;2023-10-09T09:55:21;100379.04;;;17.30;72.78
51067;BME280;37112;45.892;-123.962;2023-10-09T09:57:41;100359.90;;;17.31;72.62
51067;BME280;37112;45.892;-123.962;2023-10-09T09:59:57;100343.89;;;17.32;72.66
51067;BME280;37112;45.892;-123.962;2023-10-09T10:02:23;100350.69;;;17.34;72.72
51067;BME280;37112;45.892;-123.962;2023-10-09T10:04:41;100347.81;;;17.35;72.79
51067;BME280;37112;45.892;-123.962;2023-10-09T10:06:56;100345.16;;;17.37;72.73
51067;BME280;37112;45.892;-123.962;2023-10-09T10:09:37;100361.37;;;17.38;72.66
51067;BME280;37112;45.892;-123.962;2023-10-09T10:11:52;100363.63;;;17.39;72.61
51067;BME280;37112;45.892;-123.962;2023-10-09T10:14:04;100348.41;;;17.38;72.59
51067;BME280;37112;45.892;-123.962;2023-10-09T10:16:19;100337.38;;;17.39;72.56
51067;BME280;37112;45.892;-123.962;2023-10-09T10:18:51;100323.92;;;17.39;72.51
51067;BME280;37112;45.892;-123.962;2023-10-09T10:23:26;100340.61;;;17.39;72.51
51067;BME280;37112;45.892;-123.962;2023-10-09T10:25:46;100343.97;;;17.38;72.40
51067;BME280;37112;45.892;-123.962;2023-10-09T10:28:17;100341.13;;;17.36;72.52
51067;BME280;37112;45.892;-123.962;2023-10-09T10:30:48;100329.20;;;17.35;72.42
51067;BME280;37112;45.892;-123.962;2023-10-09T10:33:04;100337.23;;;17.35;72.44
51067;BME280;37112;45.892;-123.962;2023-10-09T10:35:26;100331.17;;;17.35;72.40
51067;BME280;37112;45.892;-123.962;2023-10-09T10:37:50;100325.17;;;17.36;72.48
51067;BME280;37112;45.892;-123.962;2023-10-09T10:40:13;100312.44;;;17.37;72.43
51067;BME280;37112;45.892;-123.962;2023-10-09T10:42:52;100317.56;;;17.38;72.46
51067;BME280;37112;45.892;-123.962;2023-10-09T10:45:22;100313.15;;;17.37;72.34
51067;BME280;37112;45.892;-123.962;2023-10-09T10:47:44;100297.95;;;17.37;72.40
51067;BME280;37112;45.892;-123.962;2023-10-09T10:50:00;100295.05;;;17.37;72.43
51067;BME280;37112;45.892;-123.962;2023-10-09T10:52:40;100292.02;;;17.39;72.43
51067;BME280;37112;45.892;-123.962;2023-10-09T10:55:12;100295.25;;;17.40;72.33
51067;BME280;37112;45.892;-123.962;2023-10-09T10:57:45;100288.23;;;17.42;72.35
51067;BME280;37112;45.892;-123.962;2023-10-09T11:00:15;100275.14;;;17.44;72.39
51067;BME280;37112;45.892;-123.962;2023-10-09T11:02:51;100272.27;;;17.46;72.35
51067;BME280;37112;45.892;-123.962;2023-10-09T11:05:04;100264.92;;;17.46;72.29
51067;BME280;37112;45.892;-123.962;2023-10-09T11:07:34;100261.95;;;17.46;72.22
51067;BME280;37112;45.892;-123.962;2023-10-09T11:09:49;100250.11;;;17.46;72.18
51067;BME280;37112;45.892;-123.962;2023-10-09T11:12:19;100238.23;;;17.47;72.31
51067;BME280;37112;45.892;-123.962;2023-10-09T11:14:34;100217.33;;;17.49;72.22
51067;BME280;37112;45.892;-123.962;2023-10-09T11:16:55;100174.02;;;17.51;72.08
51067;BME280;37112;45.892;-123.962;2023-10-09T11:19:14;100167.02;;;17.53;72.11
51067;BME280;37112;45.892;-123.962;2023-10-09T11:21:51;100177.99;;;17.54;72.13
51067;BME280;37112;45.892;-123.962;2023-10-09T11:24:31;100247.42;;;17.55;72.02
51067;BME280;37112;45.892;-123.962;2023-10-09T11:26:45;100232.45;;;17.54;72.01
51067;BME280;37112;45.892;-123.962;2023-10-09T11:29:12;100252.81;;;17.53;71.87
51067;BME280;37112;45.892;-123.962;2023-10-09T11:31:26;100251.23;;;17.53;71.66
51067;BME280;37112;45.892;-123.962;2023-10-09T11:33:49;100289.16;;;17.54;71.95
51067;BME280;37112;45.892;-123.962;2023-10-09T11:36:04;100291.49;;;17.58;71.91
51067;BME280;37112;45.892;-123.962;2023-10-09T11:38:17;100294.63;;;17.61;71.88
51067;BME280;37112;45.892;-123.962;2023-10-09T11:40:33;100302.04;;;17.63;71.87
51067;BME280;37112;45.892;-123.962;2023-10-09T11:43:02;100279.21;;;17.65;71.75
51067;BME280;37112;45.892;-123.962;2023-10-09T11:45:27;100280.88;;;17.66;71.61
51067;BME280;37112;45.892;-123.962;2023-10-09T11:47:41;100282.84;;;17.67;71.65
51067;BME280;37112;45.892;-123.962;2023-10-09T11:50:05;100273.71;;;17.66;71.64